createdAt,value
2022-10-17T00:01:04.866Z,25.62
2022-10-17T00:03:36.647Z,28.92
2022-10-17T00:06:09.648Z,28.17
2022-10-17T00:08:43.345Z,27.80
2022-10-17T00:11:16.400Z,29.75
2022-10-17T00:13:48.515Z,40.73
2022-10-17T00:16:21.664Z,31.73
2022-10-17T00:18:53.023Z,27.75
2022-10-17T00:21:25.752Z,28.98
2022-10-17T00:23:56.849Z,26.20
2022-10-17T00:26:28.861Z,25.00
2022-10-17T00:28:59.579Z,23.40
2022-10-17T00:31:32.227Z,22.95
2022-10-17T00:34:02.743Z,20.55
2022-10-17T00:36:33.318Z,21.85
2022-10-17T00:39:06.211Z,20.23
2022-10-17T00:41:37.313Z,21.17
2022-10-17T00:44:10.600Z,24.02
2022-10-17T00:46:41.908Z,22.45
2022-10-17T00:49:14.208Z,21.42
2022-10-17T00:51:47.243Z,23.22
2022-10-17T00:54:20.375Z,19.52
2022-10-17T00:56:51.852Z,21.20
2022-10-17T00:59:23.936Z,22.50
2022-10-17T01:01:57.537Z,19.07
2022-10-17T01:04:28.449Z,19.60
2022-10-17T01:06:59.076Z,18.80
2022-10-17T01:09:30.271Z,18.55
2022-10-17T01:12:03.431Z,17.27
2022-10-17T01:14:36.738Z,17.40
2022-10-17T01:17:09.848Z,17.50
2022-10-17T01:19:42.854Z,17.30
2022-10-17T01:22:14.574Z,16.75
2022-10-17T01:24:47.755Z,16.42
2022-10-17T01:27:21.059Z,16.15
2022-10-17T01:30:00.695Z,18.85
2022-10-17T01:32:33.996Z,17.37
2022-10-17T01:35:07.156Z,18.45
2022-10-17T01:37:40.798Z,16.90
2022-10-17T01:40:12.954Z,17.65
2022-10-17T01:42:46.966Z,15.15
2022-10-17T01:45:20.043Z,15.80
2022-10-17T01:47:53.080Z,15.30
2022-10-17T01:50:26.150Z,16.70
2022-10-17T01:52:59.430Z,15.60
2022-10-17T01:55:32.435Z,16.27
2022-10-17T01:58:05.445Z,15.60
2022-10-17T02:00:39.045Z,15.05
2022-10-17T02:03:14.055Z,15.35
2022-10-17T02:05:46.314Z,14.60
2022-10-17T02:08:18.357Z,14.43
2022-10-17T02:10:51.421Z,14.73
2022-10-17T02:13:22.839Z,13.88
2022-10-17T02:15:55.875Z,15.23
2022-10-17T02:18:27.338Z,14.63
2022-10-17T02:21:00.375Z,14.53
2022-10-17T02:23:32.406Z,14.20
2022-10-17T02:26:08.130Z,14.45
2022-10-17T02:28:41.184Z,14.68
2022-10-17T02:31:14.745Z,13.93
2022-10-17T02:33:46.270Z,14.93
2022-10-17T02:36:19.319Z,15.00
2022-10-17T02:38:54.481Z,14.38
2022-10-17T02:41:26.899Z,14.47
2022-10-17T02:44:00.221Z,14.00
2022-10-17T02:46:31.061Z,13.93
2022-10-17T02:49:02.875Z,13.83
2022-10-17T02:51:34.603Z,13.50
2022-10-17T02:54:08.044Z,14.03
2022-10-17T02:56:41.197Z,13.05
2022-10-17T02:59:13.843Z,13.62
2022-10-17T03:01:45.074Z,14.50
2022-10-17T03:04:17.414Z,13.35
2022-10-17T03:06:49.736Z,13.50
2022-10-17T03:09:20.441Z,13.93
2022-10-17T03:11:52.247Z,14.87
2022-10-17T03:14:23.039Z,14.07
2022-10-17T03:16:53.934Z,13.72
2022-10-17T03:19:24.911Z,12.70
2022-10-17T03:21:56.040Z,13.08
2022-10-17T03:24:26.550Z,13.28
2022-10-17T03:26:58.034Z,12.90
2022-10-17T03:29:28.869Z,12.58
2022-10-17T03:31:59.712Z,12.47
2022-10-17T03:34:30.290Z,13.10
2022-10-17T03:37:00.799Z,12.73
2022-10-17T03:39:31.512Z,12.35
2022-10-17T03:42:02.109Z,11.85
2022-10-17T03:44:32.798Z,11.68
2022-10-17T03:47:03.413Z,12.37
2022-10-17T03:49:34.017Z,12.93
2022-10-17T03:52:04.678Z,12.13
2022-10-17T03:54:36.006Z,11.70
2022-10-17T03:57:07.003Z,11.33
2022-10-17T03:59:37.586Z,11.45
2022-10-17T04:02:08.078Z,11.60
2022-10-17T04:04:38.591Z,10.72
2022-10-17T04:07:09.695Z,11.78
2022-10-17T04:09:40.430Z,11.65
2022-10-17T04:12:11.263Z,11.75
2022-10-17T04:14:42.144Z,12.43
2022-10-17T04:17:13.143Z,12.60
2022-10-17T04:19:44.459Z,12.23
2022-10-17T04:22:15.056Z,12.28
2022-10-17T04:24:46.426Z,12.25
2022-10-17T04:27:18.705Z,12.45
2022-10-17T04:29:51.397Z,12.00
2022-10-17T04:32:23.864Z,12.65
2022-10-17T04:34:54.050Z,11.93
2022-10-17T04:37:25.663Z,12.10
2022-10-17T04:39:56.500Z,12.03
2022-10-17T04:42:27.371Z,11.90
2022-10-17T04:44:58.141Z,12.43
2022-10-17T04:47:28.907Z,12.82
2022-10-17T04:49:59.556Z,12.47
2022-10-17T04:52:30.320Z,12.73
2022-10-17T04:55:02.948Z,12.65
2022-10-17T04:57:37.163Z,13.20
2022-10-17T05:02:40.741Z,13.28
2022-10-17T05:05:11.780Z,12.68
2022-10-17T05:07:43.536Z,12.13
2022-10-17T05:10:16.931Z,12.25
2022-10-17T05:12:49.573Z,13.45
2022-10-17T05:15:20.404Z,12.88
2022-10-17T05:17:51.639Z,12.82
2022-10-17T05:20:23.582Z,13.58
2022-10-17T05:22:54.465Z,12.75
2022-10-17T05:25:25.587Z,12.88
2022-10-17T05:27:57.546Z,13.03
2022-10-17T05:30:28.435Z,12.40
2022-10-17T05:32:59.051Z,12.40
2022-10-17T05:35:29.745Z,12.47
2022-10-17T05:38:04.387Z,12.85
2022-10-17T05:40:35.838Z,12.40
2022-10-17T05:43:06.354Z,13.22
2022-10-17T05:45:37.973Z,12.95
2022-10-17T05:48:10.106Z,13.10
2022-10-17T05:50:42.419Z,12.88
2022-10-17T05:53:16.325Z,12.65
2022-10-17T05:55:47.095Z,12.85
2022-10-17T05:58:22.476Z,12.43
2022-10-17T06:00:50.536Z,12.07
2022-10-17T06:03:22.384Z,12.47
2022-10-17T06:05:54.224Z,13.40
2022-10-17T06:08:25.878Z,12.90
2022-10-17T06:10:57.229Z,12.85
2022-10-17T06:13:28.553Z,13.03
2022-10-17T06:16:01.256Z,12.63
2022-10-17T06:18:35.369Z,11.78
2022-10-17T06:21:12.978Z,12.63
2022-10-17T06:23:44.717Z,12.55
2022-10-17T06:26:15.261Z,13.30
2022-10-17T06:28:46.258Z,12.30
2022-10-17T06:31:21.224Z,11.45
2022-10-17T06:33:52.697Z,12.35
2022-10-17T06:36:26.377Z,12.43
2022-10-17T06:38:59.839Z,12.73
2022-10-17T06:41:30.549Z,12.73
2022-10-17T06:44:01.849Z,12.05
2022-10-17T06:46:35.358Z,13.32
2022-10-17T06:49:06.841Z,12.18
2022-10-17T06:51:44.781Z,11.78
2022-10-17T06:54:15.891Z,12.60
2022-10-17T06:56:46.654Z,12.35
2022-10-17T06:59:18.034Z,12.88
2022-10-17T07:01:48.698Z,12.95
2022-10-17T07:04:20.966Z,12.53
2022-10-17T07:06:54.516Z,12.53
2022-10-17T07:09:26.100Z,13.20
2022-10-17T07:11:56.755Z,13.05
2022-10-17T07:14:29.210Z,12.98
2022-10-17T07:17:02.712Z,13.00
2022-10-17T07:19:33.712Z,12.65
2022-10-17T07:22:04.432Z,11.85
2022-10-17T07:24:35.277Z,12.93
2022-10-17T07:27:07.865Z,13.35
2022-10-17T07:29:38.614Z,12.90
2022-10-17T07:32:09.756Z,12.70
2022-10-17T07:34:40.405Z,13.30
2022-10-17T07:37:12.538Z,12.98
2022-10-17T07:39:43.288Z,12.53
2022-10-17T07:42:15.609Z,12.78
2022-10-17T07:44:47.619Z,13.28
2022-10-17T07:47:18.144Z,12.63
2022-10-17T07:49:49.165Z,13.45
2022-10-17T07:52:20.500Z,12.68
2022-10-17T07:54:51.509Z,12.93
2022-10-17T07:57:22.028Z,13.50
2022-10-17T07:59:52.868Z,13.65
2022-10-17T08:02:26.058Z,12.93
2022-10-17T08:04:56.985Z,13.60
2022-10-17T08:07:29.453Z,13.15
2022-10-17T08:10:00.133Z,13.48
2022-10-17T08:12:32.632Z,13.32
2022-10-17T08:15:05.370Z,13.22
2022-10-17T08:17:38.415Z,12.98
2022-10-17T08:20:09.950Z,12.82
2022-10-17T08:22:40.901Z,13.72
2022-10-17T08:25:12.179Z,13.30
2022-10-17T08:27:43.014Z,14.07
2022-10-17T08:30:14.382Z,12.75
2022-10-17T08:32:46.240Z,13.83
2022-10-17T08:35:16.933Z,13.10
2022-10-17T08:37:47.527Z,14.07
2022-10-17T08:40:21.002Z,13.43
2022-10-17T08:43:01.551Z,13.70
2022-10-17T08:45:34.592Z,13.30
2022-10-17T08:48:08.065Z,14.10
2022-10-17T08:50:39.917Z,12.63
2022-10-17T08:53:13.714Z,13.53
2022-10-17T08:55:47.551Z,14.07
2022-10-17T08:58:21.395Z,14.83
2022-10-17T09:00:55.232Z,13.22
2022-10-17T09:03:30.886Z,13.18
2022-10-17T09:06:04.613Z,13.10
2022-10-17T09:08:38.907Z,13.83
2022-10-17T09:11:12.579Z,13.45
2022-10-17T09:13:44.751Z,14.33
2022-10-17T09:16:16.944Z,13.38
2022-10-17T09:18:50.627Z,13.35
2022-10-17T09:21:22.910Z,13.05
2022-10-17T09:24:03.981Z,13.22
2022-10-17T09:26:30.705Z,13.88
2022-10-17T09:29:04.543Z,12.90
2022-10-17T09:31:38.360Z,12.60
2022-10-17T09:34:11.543Z,13.62
2022-10-17T09:36:45.554Z,13.25
2022-10-17T09:39:17.031Z,14.45
2022-10-17T09:41:50.039Z,13.75
2022-10-17T09:44:23.597Z,14.33
2022-10-17T09:46:56.890Z,12.25
2022-10-17T09:49:30.307Z,13.43
2022-10-17T09:52:02.202Z,14.25
2022-10-17T09:54:35.749Z,13.55
2022-10-17T09:57:09.351Z,13.83
2022-10-17T09:59:42.615Z,13.95
2022-10-17T10:02:14.375Z,14.40
2022-10-17T10:05:03.745Z,14.07
2022-10-17T10:07:22.012Z,14.00
2022-10-17T10:09:54.053Z,14.38
2022-10-17T10:12:27.619Z,14.15
2022-10-17T10:14:59.132Z,14.13
2022-10-17T10:17:32.536Z,14.65
2022-10-17T10:20:09.511Z,14.33
2022-10-17T10:22:39.784Z,14.68
2022-10-17T10:25:13.439Z,14.63
2022-10-17T10:27:46.613Z,14.68
2022-10-17T10:30:22.754Z,14.58
2022-10-17T10:33:00.232Z,15.48
2022-10-17T10:38:06.323Z,14.95
2022-10-17T10:40:39.553Z,15.28
2022-10-17T10:43:10.695Z,14.98
2022-10-17T10:45:48.986Z,14.93
2022-10-17T10:48:14.304Z,16.20
2022-10-17T10:50:45.754Z,16.37
2022-10-17T10:53:19.474Z,16.95
2022-10-17T10:55:52.627Z,16.60
2022-10-17T10:58:26.378Z,15.98
2022-10-17T11:00:58.852Z,16.30
2022-10-17T11:03:35.918Z,15.88
2022-10-17T11:06:09.119Z,15.90
2022-10-17T11:08:42.420Z,16.30
2022-10-17T11:11:17.118Z,15.70
2022-10-17T11:13:53.287Z,16.55
2022-10-17T11:16:23.571Z,15.85
2022-10-17T11:18:56.559Z,16.85
2022-10-17T11:21:30.082Z,18.17
2022-10-17T11:24:06.795Z,17.45
2022-10-17T11:26:37.782Z,16.97
2022-10-17T11:29:10.603Z,17.85
2022-10-17T11:31:44.316Z,18.02
2022-10-17T11:34:19.141Z,17.95
2022-10-17T11:36:53.971Z,17.75
2022-10-17T11:39:27.673Z,17.95
2022-10-17T11:42:04.200Z,18.75
2022-10-17T11:47:07.457Z,17.73
2022-10-17T11:49:42.158Z,19.40
2022-10-17T11:52:19.476Z,18.77
2022-10-17T11:54:50.485Z,20.08
2022-10-17T11:57:24.419Z,18.30
2022-10-17T11:59:58.021Z,18.90
2022-10-17T12:02:31.726Z,18.57
2022-10-17T12:05:06.968Z,20.48
2022-10-17T12:07:40.547Z,20.00
2022-10-17T12:10:15.012Z,19.00
2022-10-17T12:12:45.704Z,18.92
2022-10-17T12:15:16.150Z,18.95
2022-10-17T12:17:50.444Z,19.73
2022-10-17T12:20:21.752Z,19.00
2022-10-17T12:22:57.798Z,19.17
2022-10-17T12:25:31.786Z,21.12
2022-10-17T12:28:04.872Z,19.55
2022-10-17T12:30:37.041Z,23.32
2022-10-17T12:33:11.147Z,24.85
2022-10-17T12:35:43.661Z,24.65
2022-10-17T12:38:17.025Z,22.95
2022-10-17T12:40:49.178Z,22.27
2022-10-17T12:43:22.404Z,21.50
2022-10-17T12:45:56.041Z,24.60
2022-10-17T12:48:32.149Z,22.30
2022-10-17T12:51:30.685Z,23.02
2022-10-17T12:53:38.137Z,23.57
2022-10-17T12:56:09.465Z,22.75
2022-10-17T12:58:41.541Z,24.77
2022-10-17T13:01:29.803Z,23.55
2022-10-17T13:03:49.108Z,22.80
2022-10-17T13:06:22.788Z,24.52
2022-10-17T13:08:59.796Z,24.20
2022-10-17T13:11:31.182Z,25.52
2022-10-17T13:14:04.561Z,25.60
2022-10-17T13:16:36.326Z,24.70
2022-10-17T13:19:09.555Z,26.55
2022-10-17T13:21:41.485Z,25.48
2022-10-17T13:24:57.977Z,25.30
2022-10-17T13:34:18.045Z,25.70
2022-10-17T13:36:51.947Z,25.88
2022-10-17T13:40:02.996Z,27.07
2022-10-17T13:49:11.953Z,25.13
2022-10-17T13:51:45.327Z,25.25
2022-10-17T13:55:17.534Z,26.70
2022-10-17T14:04:19.756Z,26.75
2022-10-17T14:18:40.487Z,29.40
2022-10-17T14:23:24.953Z,28.02
2022-10-17T14:50:08.327Z,27.48
2022-10-17T14:56:59.655Z,31.57
2022-10-17T14:59:52.670Z,30.88
2022-10-17T15:02:02.342Z,31.73
2022-10-17T15:04:35.661Z,30.90
2022-10-17T15:07:09.960Z,32.53
2022-10-17T15:09:40.665Z,31.93
2022-10-17T15:12:13.803Z,30.32
2022-10-17T15:14:44.687Z,29.15
2022-10-17T15:29:56.600Z,29.87
2022-10-17T15:32:30.074Z,29.87
2022-10-17T15:35:00.756Z,28.45
2022-10-17T15:37:33.828Z,29.20
2022-10-17T15:40:04.561Z,28.32
2022-10-17T15:42:35.251Z,29.30
2022-10-17T15:45:06.109Z,29.12
2022-10-17T15:47:37.417Z,27.65
2022-10-17T15:50:10.121Z,30.02
2022-10-17T15:52:40.834Z,30.00
2022-10-17T15:55:13.227Z,28.77
2022-10-17T15:57:47.435Z,29.70
2022-10-17T16:00:19.155Z,28.98
2022-10-17T16:02:51.596Z,29.82
2022-10-17T16:05:24.512Z,29.42
2022-10-17T16:07:58.607Z,29.40
2022-10-17T16:10:36.205Z,27.75
2022-10-17T16:13:08.312Z,27.90
2022-10-17T16:15:45.473Z,28.02
2022-10-17T16:18:15.446Z,27.73
2022-10-17T16:20:49.089Z,28.23
2022-10-17T16:23:19.702Z,28.10
2022-10-17T16:25:50.336Z,28.73
2022-10-17T16:28:20.854Z,29.35
2022-10-17T16:30:51.526Z,30.82
2022-10-17T16:33:23.432Z,30.92
2022-10-17T16:35:55.163Z,29.90
2022-10-17T16:38:26.003Z,30.17
2022-10-17T16:41:00.822Z,31.30
2022-10-17T16:43:32.259Z,31.30
2022-10-17T16:46:06.158Z,32.05
2022-10-17T16:48:37.592Z,31.75
2022-10-17T16:51:09.602Z,32.13
2022-10-17T16:53:41.595Z,32.10
2022-10-17T16:56:16.146Z,32.00
2022-10-17T16:58:51.457Z,31.12
2022-10-17T17:01:27.452Z,30.52
2022-10-17T17:03:58.707Z,33.63
2022-10-17T17:06:31.664Z,31.33
2022-10-17T17:09:02.633Z,31.12
2022-10-17T17:11:33.774Z,31.10
2022-10-17T17:14:04.723Z,29.70
2022-10-17T17:16:39.649Z,31.65
2022-10-17T17:19:12.805Z,33.60
2022-10-17T17:21:45.992Z,31.85
2022-10-17T17:24:20.852Z,32.50
2022-10-17T17:26:55.285Z,31.85
2022-10-17T17:29:27.061Z,30.77
2022-10-17T17:31:57.525Z,30.05
2022-10-17T17:34:28.239Z,30.27
2022-10-17T17:36:59.168Z,29.87
2022-10-17T17:39:29.662Z,28.62
2022-10-17T17:42:00.256Z,30.40
2022-10-17T17:44:38.434Z,28.15
2022-10-17T17:47:03.253Z,29.15
2022-10-17T17:49:36.806Z,29.37
2022-10-17T17:52:11.226Z,27.22
2022-10-17T17:54:41.791Z,28.67
2022-10-17T17:57:12.732Z,27.10
2022-10-17T17:59:43.451Z,27.58
2022-10-17T18:02:16.691Z,28.40
2022-10-17T18:04:46.549Z,27.60
2022-10-17T18:07:17.047Z,27.07
2022-10-17T18:09:47.743Z,27.35
2022-10-17T18:12:18.320Z,27.52
2022-10-17T18:14:55.260Z,28.05
2022-10-17T18:17:29.046Z,28.50
2022-10-17T18:20:03.860Z,30.25
2022-10-17T18:22:34.738Z,29.77
2022-10-17T18:25:09.458Z,29.25
2022-10-17T18:27:41.465Z,27.15
2022-10-17T18:30:12.668Z,28.47
2022-10-17T18:32:44.007Z,27.58
2022-10-17T18:35:14.763Z,26.85
2022-10-17T18:37:51.552Z,28.32
2022-10-17T18:43:00.533Z,26.93
2022-10-17T18:45:35.419Z,27.15
2022-10-17T18:48:08.602Z,26.77
2022-10-17T18:50:42.780Z,26.80
2022-10-17T18:53:13.308Z,26.45
2022-10-17T18:58:16.908Z,25.90
2022-10-17T19:00:47.966Z,27.13
2022-10-17T19:03:19.094Z,27.30
2022-10-17T19:05:49.838Z,26.50
2022-10-17T19:08:39.939Z,27.32
2022-10-17T19:11:11.517Z,27.25
2022-10-17T19:16:18.898Z,26.25
2022-10-17T19:18:52.078Z,25.82
2022-10-17T19:21:23.612Z,27.48
2022-10-17T19:23:57.179Z,27.87
2022-10-17T19:26:32.739Z,27.45
2022-10-17T19:29:05.660Z,26.73
2022-10-17T19:31:38.011Z,26.60
2022-10-17T19:34:08.691Z,26.33
2022-10-17T19:36:39.729Z,26.75
2022-10-17T19:39:13.441Z,26.65
2022-10-17T19:41:44.113Z,26.65
2022-10-17T19:44:15.339Z,26.82
2022-10-17T19:46:47.438Z,27.02
2022-10-17T19:49:19.396Z,26.95
2022-10-17T19:51:50.050Z,26.82
2022-10-17T19:54:21.468Z,25.82
2022-10-17T19:56:52.129Z,27.48
2022-10-17T20:01:53.434Z,26.17
2022-10-17T20:04:25.085Z,28.35
2022-10-17T20:06:57.214Z,27.50
2022-10-17T20:09:30.518Z,27.20
2022-10-17T20:12:01.352Z,28.57
2022-10-17T20:14:32.049Z,28.02
2022-10-17T20:17:02.805Z,28.15
2022-10-17T20:19:35.289Z,28.05
2022-10-17T20:22:06.023Z,28.57
2022-10-17T20:24:36.531Z,27.98
2022-10-17T20:27:07.179Z,28.05
2022-10-17T20:29:37.914Z,28.50
2022-10-17T20:32:08.992Z,28.55
2022-10-17T20:34:40.494Z,29.35
2022-10-17T20:37:13.019Z,28.45
2022-10-17T20:39:44.795Z,28.65
2022-10-17T20:42:15.630Z,28.75
2022-10-17T20:44:46.802Z,28.87
2022-10-17T20:47:39.991Z,28.30
2022-10-17T20:49:50.380Z,28.57
2022-10-17T20:52:24.140Z,29.42
2022-10-17T20:54:54.846Z,29.92
2022-10-17T20:57:25.690Z,29.05
2022-10-17T20:59:56.521Z,30.17
2022-10-17T21:02:27.145Z,29.50
2022-10-17T21:04:57.804Z,30.10
2022-10-17T21:07:28.532Z,29.80
2022-10-17T21:10:07.654Z,29.52
2022-10-17T21:12:42.755Z,30.02
2022-10-17T21:15:03.166Z,30.12
2022-10-17T21:17:34.087Z,29.77
2022-10-17T21:20:04.802Z,30.10
2022-10-17T21:22:37.391Z,31.42
2022-10-17T21:25:08.599Z,31.95
2022-10-17T21:27:39.300Z,30.40
2022-10-17T21:30:10.938Z,29.95
2022-10-17T21:32:55.325Z,30.32
2022-10-17T21:35:13.485Z,30.70
2022-10-17T21:37:46.079Z,30.15
2022-10-17T21:40:18.217Z,31.37
2022-10-17T21:42:48.977Z,31.73
2022-10-17T21:45:25.885Z,32.17
2022-10-17T21:48:11.615Z,31.37
2022-10-17T21:50:24.414Z,31.42
2022-10-17T21:52:55.018Z,30.77
2022-10-17T21:55:25.614Z,30.70
2022-10-17T21:57:56.334Z,30.45
2022-10-17T22:00:26.985Z,31.35
2022-10-17T22:02:57.594Z,30.70
2022-10-17T22:05:28.280Z,31.00
2022-10-17T22:07:58.785Z,29.95
2022-10-17T22:10:29.300Z,31.23
2022-10-17T22:12:59.838Z,30.70
2022-10-17T22:15:31.271Z,30.68
2022-10-17T22:18:01.805Z,29.98
2022-10-17T22:20:32.498Z,32.00
2022-10-17T22:23:03.163Z,31.23
2022-10-17T22:25:33.812Z,31.40
2022-10-17T22:28:04.521Z,29.82
2022-10-17T22:30:35.340Z,31.70
2022-10-17T22:33:06.018Z,31.75
2022-10-17T22:35:36.609Z,32.50
2022-10-17T22:38:07.430Z,32.05
2022-10-17T22:40:38.038Z,33.60
2022-10-17T22:43:08.852Z,34.33
2022-10-17T22:45:39.854Z,33.80
2022-10-17T22:48:12.898Z,35.17
2022-10-17T22:50:43.589Z,33.78
2022-10-17T22:53:14.512Z,34.80
2022-10-17T22:55:45.006Z,33.98
2022-10-17T22:58:15.678Z,32.95
2022-10-17T23:00:46.163Z,31.93
2022-10-17T23:03:16.863Z,31.55
2022-10-17T23:05:48.168Z,30.55
2022-10-17T23:08:19.596Z,31.10
2022-10-17T23:10:50.800Z,31.65
2022-10-17T23:13:25.321Z,30.65
2022-10-17T23:15:57.472Z,30.70
2022-10-17T23:21:00.154Z,33.45
2022-10-17T23:23:30.799Z,32.73
2022-10-17T23:26:03.840Z,30.57
2022-10-17T23:28:36.161Z,31.60
2022-10-17T23:31:09.317Z,32.75
2022-10-17T23:33:41.551Z,32.03
2022-10-17T23:36:14.069Z,31.80
2022-10-17T23:38:46.354Z,32.83
2022-10-17T23:41:18.277Z,32.98
2022-10-17T23:43:48.994Z,32.98
2022-10-17T23:46:19.549Z,32.23
2022-10-17T23:48:50.811Z,32.17
2022-10-17T23:51:23.042Z,33.80
2022-10-17T23:53:53.710Z,33.88
2022-10-17T23:56:24.337Z,33.73
2022-10-17T23:58:56.695Z,34.78
